sensor_id;sensor_type;location;lat;lon;timestamp;P1;durP1;ratioP1;P2;durP2;ratioP2
48596;SDS011;34382;43.160;24.148;2022-08-21T00:00:25;12.02;;;7.15;;
48596;SDS011;34382;43.160;24.148;2022-08-21T00:01:58;15.85;;;7.13;;
48596;SDS011;34382;43.160;24.148;2022-08-21T00:03:31;14.93;;;6.65;;
48596;SDS011;34382;43.160;24.148;2022-08-21T00:05:03;17.03;;;7.37;;
48596;SDS011;34382;43.160;24.148;2022-08-21T00:06:36;12.65;;;7.18;;
48596;SDS011;34382;43.160;24.148;2022-08-21T00:08:09;15.52;;;7.30;;
48596;SDS011;34382;43.160;24.148;2022-08-21T00:09:42;14.57;;;7.95;;
48596;SDS011;34382;43.160;24.148;2022-08-21T00:11:14;12.95;;;7.45;;
48596;SDS011;34382;43.160;24.148;2022-08-21T00:12:46;19.70;;;8.18;;
48596;SDS011;34382;43.160;24.148;2022-08-21T00:14:20;15.98;;;9.90;;
48596;SDS011;34382;43.160;24.148;2022-08-21T00:15:52;15.45;;;8.10;;
48596;SDS011;34382;43.160;24.148;2022-08-21T00:17:25;14.93;;;7.68;;
48596;SDS011;34382;43.160;24.148;2022-08-21T00:18:57;22.23;;;7.82;;
48596;SDS011;34382;43.160;24.148;2022-08-21T00:20:29;19.00;;;7.70;;
48596;SDS011;34382;43.160;24.148;2022-08-21T00:22:02;12.57;;;6.93;;
48596;SDS011;34382;43.160;24.148;2022-08-21T00:23:34;11.50;;;6.60;;
48596;SDS011;34382;43.160;24.148;2022-08-21T00:25:07;14.13;;;7.15;;
48596;SDS011;34382;43.160;24.148;2022-08-21T00:26:40;14.40;;;8.40;;
48596;SDS011;34382;43.160;24.148;2022-08-21T00:28:14;14.40;;;7.03;;
48596;SDS011;34382;43.160;24.148;2022-08-21T00:29:46;14.10;;;7.88;;
48596;SDS011;34382;43.160;24.148;2022-08-21T00:31:19;14.60;;;8.02;;
48596;SDS011;34382;43.160;24.148;2022-08-21T00:32:51;15.75;;;8.52;;
48596;SDS011;34382;43.160;24.148;2022-08-21T00:34:25;12.63;;;7.20;;
48596;SDS011;34382;43.160;24.148;2022-08-21T00:35:57;13.13;;;7.53;;
48596;SDS011;34382;43.160;24.148;2022-08-21T00:37:29;12.05;;;6.95;;
48596;SDS011;34382;43.160;24.148;2022-08-21T00:39:06;14.23;;;8.02;;
48596;SDS011;34382;43.160;24.148;2022-08-21T00:42:18;16.65;;;7.70;;
48596;SDS011;34382;43.160;24.148;2022-08-21T00:43:53;15.07;;;8.05;;
48596;SDS011;34382;43.160;24.148;2022-08-21T00:45:28;14.95;;;8.13;;
48596;SDS011;34382;43.160;24.148;2022-08-21T00:48:36;17.55;;;8.23;;
48596;SDS011;34382;43.160;24.148;2022-08-21T00:50:09;19.45;;;8.57;;
48596;SDS011;34382;43.160;24.148;2022-08-21T00:51:53;14.63;;;7.20;;
48596;SDS011;34382;43.160;24.148;2022-08-21T00:53:28;14.48;;;7.78;;
48596;SDS011;34382;43.160;24.148;2022-08-21T00:55:02;12.93;;;7.70;;
48596;SDS011;34382;43.160;24.148;2022-08-21T00:56:38;18.20;;;7.25;;
48596;SDS011;34382;43.160;24.148;2022-08-21T00:58:13;15.10;;;7.90;;
48596;SDS011;34382;43.160;24.148;2022-08-21T00:59:49;13.30;;;7.30;;
48596;SDS011;34382;43.160;24.148;2022-08-21T01:01:23;13.40;;;8.40;;
48596;SDS011;34382;43.160;24.148;2022-08-21T01:02:56;15.10;;;7.90;;
48596;SDS011;34382;43.160;24.148;2022-08-21T01:04:30;15.00;;;7.70;;
48596;SDS011;34382;43.160;24.148;2022-08-21T01:06:02;18.70;;;8.43;;
48596;SDS011;34382;43.160;24.148;2022-08-21T01:07:36;14.50;;;7.95;;
48596;SDS011;34382;43.160;24.148;2022-08-21T01:09:09;17.60;;;8.52;;
48596;SDS011;34382;43.160;24.148;2022-08-21T01:10:42;14.65;;;8.07;;
48596;SDS011;34382;43.160;24.148;2022-08-21T01:13:47;15.02;;;7.80;;
48596;SDS011;34382;43.160;24.148;2022-08-21T01:16:56;16.13;;;8.05;;
48596;SDS011;34382;43.160;24.148;2022-08-21T01:18:29;13.32;;;8.60;;
48596;SDS011;34382;43.160;24.148;2022-08-21T01:20:03;17.00;;;7.80;;
48596;SDS011;34382;43.160;24.148;2022-08-21T01:21:37;16.98;;;8.60;;
48596;SDS011;34382;43.160;24.148;2022-08-21T01:23:09;14.18;;;8.45;;
48596;SDS011;34382;43.160;24.148;2022-08-21T01:24:42;14.40;;;8.47;;
48596;SDS011;34382;43.160;24.148;2022-08-21T01:26:15;15.93;;;8.67;;
48596;SDS011;34382;43.160;24.148;2022-08-21T01:27:49;15.20;;;8.85;;
48596;SDS011;34382;43.160;24.148;2022-08-21T01:29:42;16.63;;;7.75;;
48596;SDS011;34382;43.160;24.148;2022-08-21T01:31:19;14.93;;;8.45;;
48596;SDS011;34382;43.160;24.148;2022-08-21T01:32:56;15.80;;;8.80;;
48596;SDS011;34382;43.160;24.148;2022-08-21T01:34:29;17.15;;;9.20;;
48596;SDS011;34382;43.160;24.148;2022-08-21T01:36:01;17.35;;;10.10;;
48596;SDS011;34382;43.160;24.148;2022-08-21T01:37:37;16.10;;;9.52;;
48596;SDS011;34382;43.160;24.148;2022-08-21T01:39:10;20.30;;;9.00;;
48596;SDS011;34382;43.160;24.148;2022-08-21T01:40:42;20.07;;;9.60;;
48596;SDS011;34382;43.160;24.148;2022-08-21T01:42:14;14.05;;;8.85;;
48596;SDS011;34382;43.160;24.148;2022-08-21T01:43:46;13.32;;;8.57;;
48596;SDS011;34382;43.160;24.148;2022-08-21T01:45:19;15.83;;;9.10;;
48596;SDS011;34382;43.160;24.148;2022-08-21T01:46:51;17.30;;;9.23;;
48596;SDS011;34382;43.160;24.148;2022-08-21T01:48:23;15.90;;;9.13;;
48596;SDS011;34382;43.160;24.148;2022-08-21T01:49:55;14.65;;;9.00;;
48596;SDS011;34382;43.160;24.148;2022-08-21T01:51:28;17.13;;;9.15;;
48596;SDS011;34382;43.160;24.148;2022-08-21T01:53:00;13.63;;;8.60;;
48596;SDS011;34382;43.160;24.148;2022-08-21T01:54:32;14.13;;;8.85;;
48596;SDS011;34382;43.160;24.148;2022-08-21T01:56:05;15.57;;;8.97;;
48596;SDS011;34382;43.160;24.148;2022-08-21T01:57:43;14.07;;;8.93;;
48596;SDS011;34382;43.160;24.148;2022-08-21T01:59:16;14.80;;;8.98;;
48596;SDS011;34382;43.160;24.148;2022-08-21T02:00:48;18.58;;;8.88;;
48596;SDS011;34382;43.160;24.148;2022-08-21T02:02:21;18.13;;;8.65;;
48596;SDS011;34382;43.160;24.148;2022-08-21T02:03:53;14.50;;;8.95;;
48596;SDS011;34382;43.160;24.148;2022-08-21T02:05:25;17.27;;;9.30;;
48596;SDS011;34382;43.160;24.148;2022-08-21T02:06:57;16.30;;;9.45;;
48596;SDS011;34382;43.160;24.148;2022-08-21T02:08:29;14.52;;;8.60;;
48596;SDS011;34382;43.160;24.148;2022-08-21T02:10:02;15.90;;;8.65;;
48596;SDS011;34382;43.160;24.148;2022-08-21T02:11:37;15.95;;;9.23;;
48596;SDS011;34382;43.160;24.148;2022-08-21T02:13:13;17.60;;;9.38;;
48596;SDS011;34382;43.160;24.148;2022-08-21T02:14:45;14.38;;;8.90;;
48596;SDS011;34382;43.160;24.148;2022-08-21T02:16:17;18.08;;;8.80;;
48596;SDS011;34382;43.160;24.148;2022-08-21T02:17:56;15.25;;;9.38;;
48596;SDS011;34382;43.160;24.148;2022-08-21T02:19:30;15.73;;;8.75;;
48596;SDS011;34382;43.160;24.148;2022-08-21T02:21:11;18.90;;;9.38;;
48596;SDS011;34382;43.160;24.148;2022-08-21T02:22:43;16.45;;;9.02;;
48596;SDS011;34382;43.160;24.148;2022-08-21T02:24:15;20.75;;;9.40;;
48596;SDS011;34382;43.160;24.148;2022-08-21T02:25:47;16.20;;;8.57;;
48596;SDS011;34382;43.160;24.148;2022-08-21T02:27:19;17.50;;;8.70;;
48596;SDS011;34382;43.160;24.148;2022-08-21T02:28:57;16.65;;;9.77;;
48596;SDS011;34382;43.160;24.148;2022-08-21T02:30:32;17.52;;;8.63;;
48596;SDS011;34382;43.160;24.148;2022-08-21T02:32:06;15.77;;;9.10;;
48596;SDS011;34382;43.160;24.148;2022-08-21T02:33:38;16.40;;;8.57;;
48596;SDS011;34382;43.160;24.148;2022-08-21T02:35:11;14.82;;;8.88;;
48596;SDS011;34382;43.160;24.148;2022-08-21T02:36:43;14.32;;;8.32;;
48596;SDS011;34382;43.160;24.148;2022-08-21T02:38:31;16.55;;;8.73;;
48596;SDS011;34382;43.160;24.148;2022-08-21T02:40:05;16.45;;;8.45;;
48596;SDS011;34382;43.160;24.148;2022-08-21T02:41:37;18.13;;;8.85;;
48596;SDS011;34382;43.160;24.148;2022-08-21T02:43:09;14.88;;;8.60;;
48596;SDS011;34382;43.160;24.148;2022-08-21T02:44:41;14.10;;;8.55;;
48596;SDS011;34382;43.160;24.148;2022-08-21T02:46:15;18.30;;;8.90;;
48596;SDS011;34382;43.160;24.148;2022-08-21T02:47:50;16.58;;;9.35;;
48596;SDS011;34382;43.160;24.148;2022-08-21T02:49:24;16.92;;;9.40;;
48596;SDS011;34382;43.160;24.148;2022-08-21T02:50:58;14.93;;;8.60;;
48596;SDS011;34382;43.160;24.148;2022-08-21T02:52:40;15.20;;;9.13;;
48596;SDS011;34382;43.160;24.148;2022-08-21T02:54:12;15.70;;;8.65;;
48596;SDS011;34382;43.160;24.148;2022-08-21T02:55:45;16.98;;;8.75;;
48596;SDS011;34382;43.160;24.148;2022-08-21T02:57:18;18.15;;;9.23;;
48596;SDS011;34382;43.160;24.148;2022-08-21T02:58:51;14.77;;;9.02;;
48596;SDS011;34382;43.160;24.148;2022-08-21T03:00:26;14.85;;;8.65;;
48596;SDS011;34382;43.160;24.148;2022-08-21T03:02:01;16.30;;;9.23;;
48596;SDS011;34382;43.160;24.148;2022-08-21T03:03:33;17.58;;;8.95;;
48596;SDS011;34382;43.160;24.148;2022-08-21T03:05:07;15.05;;;8.48;;
48596;SDS011;34382;43.160;24.148;2022-08-21T03:06:41;15.90;;;8.93;;
48596;SDS011;34382;43.160;24.148;2022-08-21T03:08:14;13.68;;;8.20;;
48596;SDS011;34382;43.160;24.148;2022-08-21T03:09:46;15.13;;;8.43;;
48596;SDS011;34382;43.160;24.148;2022-08-21T03:11:26;18.85;;;8.93;;
48596;SDS011;34382;43.160;24.148;2022-08-21T03:12:58;14.45;;;8.10;;
48596;SDS011;34382;43.160;24.148;2022-08-21T03:14:30;18.52;;;8.88;;
48596;SDS011;34382;43.160;24.148;2022-08-21T03:16:02;14.55;;;8.65;;
48596;SDS011;34382;43.160;24.148;2022-08-21T03:17:35;17.02;;;8.48;;
48596;SDS011;34382;43.160;24.148;2022-08-21T03:19:10;13.20;;;7.85;;
48596;SDS011;34382;43.160;24.148;2022-08-21T03:20:43;16.48;;;8.60;;
48596;SDS011;34382;43.160;24.148;2022-08-21T03:22:16;13.15;;;8.10;;
48596;SDS011;34382;43.160;24.148;2022-08-21T03:23:49;18.90;;;8.65;;
48596;SDS011;34382;43.160;24.148;2022-08-21T03:25:22;14.10;;;8.43;;
48596;SDS011;34382;43.160;24.148;2022-08-21T03:27:10;15.00;;;8.48;;
48596;SDS011;34382;43.160;24.148;2022-08-21T03:28:44;13.27;;;8.30;;
48596;SDS011;34382;43.160;24.148;2022-08-21T03:30:17;12.57;;;7.37;;
48596;SDS011;34382;43.160;24.148;2022-08-21T03:31:51;13.77;;;8.02;;
48596;SDS011;34382;43.160;24.148;2022-08-21T03:33:25;13.00;;;8.27;;
48596;SDS011;34382;43.160;24.148;2022-08-21T03:34:58;17.52;;;8.55;;
48596;SDS011;34382;43.160;24.148;2022-08-21T03:36:31;17.50;;;8.05;;
48596;SDS011;34382;43.160;24.148;2022-08-21T03:38:03;15.55;;;7.93;;
48596;SDS011;34382;43.160;24.148;2022-08-21T03:39:36;16.83;;;7.87;;
48596;SDS011;34382;43.160;24.148;2022-08-21T03:41:08;16.83;;;8.68;;
48596;SDS011;34382;43.160;24.148;2022-08-21T03:42:40;17.48;;;7.75;;
48596;SDS011;34382;43.160;24.148;2022-08-21T03:44:13;15.85;;;7.78;;
48596;SDS011;34382;43.160;24.148;2022-08-21T03:45:45;16.98;;;7.25;;
48596;SDS011;34382;43.160;24.148;2022-08-21T03:47:17;13.57;;;7.50;;
48596;SDS011;34382;43.160;24.148;2022-08-21T03:48:49;15.27;;;7.20;;
48596;SDS011;34382;43.160;24.148;2022-08-21T03:50:24;11.75;;;7.20;;
48596;SDS011;34382;43.160;24.148;2022-08-21T03:52:00;16.30;;;7.38;;
48596;SDS011;34382;43.160;24.148;2022-08-21T03:53:32;14.82;;;7.63;;
48596;SDS011;34382;43.160;24.148;2022-08-21T03:55:05;15.27;;;7.10;;
48596;SDS011;34382;43.160;24.148;2022-08-21T03:56:38;13.05;;;7.30;;
48596;SDS011;34382;43.160;24.148;2022-08-21T03:58:11;11.55;;;7.25;;
48596;SDS011;34382;43.160;24.148;2022-08-21T04:01:19;15.10;;;7.35;;
48596;SDS011;34382;43.160;24.148;2022-08-21T04:02:51;14.20;;;7.60;;
48596;SDS011;34382;43.160;24.148;2022-08-21T04:04:23;15.73;;;8.35;;
48596;SDS011;34382;43.160;24.148;2022-08-21T04:05:56;13.77;;;7.50;;
48596;SDS011;34382;43.160;24.148;2022-08-21T04:07:28;12.75;;;6.90;;
48596;SDS011;34382;43.160;24.148;2022-08-21T04:09:00;16.08;;;7.05;;
48596;SDS011;34382;43.160;24.148;2022-08-21T04:10:34;13.40;;;7.03;;
48596;SDS011;34382;43.160;24.148;2022-08-21T04:12:08;16.13;;;7.45;;
48596;SDS011;34382;43.160;24.148;2022-08-21T04:13:40;16.13;;;8.40;;
48596;SDS011;34382;43.160;24.148;2022-08-21T04:15:15;14.23;;;7.10;;
48596;SDS011;34382;43.160;24.148;2022-08-21T04:16:47;14.18;;;7.00;;
48596;SDS011;34382;43.160;24.148;2022-08-21T04:18:19;14.77;;;7.60;;
48596;SDS011;34382;43.160;24.148;2022-08-21T04:19:51;12.10;;;6.60;;
48596;SDS011;34382;43.160;24.148;2022-08-21T04:21:24;13.05;;;7.38;;
48596;SDS011;34382;43.160;24.148;2022-08-21T04:22:56;12.73;;;6.82;;
48596;SDS011;34382;43.160;24.148;2022-08-21T04:24:28;12.82;;;7.35;;
48596;SDS011;34382;43.160;24.148;2022-08-21T04:26:00;17.42;;;6.55;;
48596;SDS011;34382;43.160;24.148;2022-08-21T04:27:33;14.02;;;6.43;;
48596;SDS011;34382;43.160;24.148;2022-08-21T04:29:06;17.08;;;7.78;;
48596;SDS011;34382;43.160;24.148;2022-08-21T04:30:40;12.38;;;6.50;;
48596;SDS011;34382;43.160;24.148;2022-08-21T04:32:13;13.83;;;7.00;;
48596;SDS011;34382;43.160;24.148;2022-08-21T04:33:45;13.35;;;7.25;;
48596;SDS011;34382;43.160;24.148;2022-08-21T04:35:19;12.98;;;6.88;;
48596;SDS011;34382;43.160;24.148;2022-08-21T04:36:53;15.75;;;7.10;;
48596;SDS011;34382;43.160;24.148;2022-08-21T04:38:25;11.97;;;6.73;;
48596;SDS011;34382;43.160;24.148;2022-08-21T04:40:07;14.20;;;7.40;;
48596;SDS011;34382;43.160;24.148;2022-08-21T04:41:41;14.32;;;6.55;;
48596;SDS011;34382;43.160;24.148;2022-08-21T04:43:13;12.65;;;6.30;;
48596;SDS011;34382;43.160;24.148;2022-08-21T04:44:47;18.55;;;7.20;;
48596;SDS011;34382;43.160;24.148;2022-08-21T04:46:20;11.23;;;6.32;;
48596;SDS011;34382;43.160;24.148;2022-08-21T04:49:26;13.07;;;6.30;;
48596;SDS011;34382;43.160;24.148;2022-08-21T04:52:33;14.27;;;6.78;;
48596;SDS011;34382;43.160;24.148;2022-08-21T04:54:09;14.50;;;6.55;;
48596;SDS011;34382;43.160;24.148;2022-08-21T04:55:45;12.48;;;6.75;;
48596;SDS011;34382;43.160;24.148;2022-08-21T04:57:18;13.18;;;6.28;;
48596;SDS011;34382;43.160;24.148;2022-08-21T04:58:52;13.30;;;5.87;;
48596;SDS011;34382;43.160;24.148;2022-08-21T05:00:25;13.10;;;6.40;;
48596;SDS011;34382;43.160;24.148;2022-08-21T05:01:57;12.30;;;6.55;;
48596;SDS011;34382;43.160;24.148;2022-08-21T05:03:29;10.87;;;6.47;;
48596;SDS011;34382;43.160;24.148;2022-08-21T05:05:03;15.25;;;6.10;;
48596;SDS011;34382;43.160;24.148;2022-08-21T05:06:36;11.02;;;5.75;;
48596;SDS011;34382;43.160;24.148;2022-08-21T05:08:09;12.57;;;6.50;;
48596;SDS011;34382;43.160;24.148;2022-08-21T05:09:44;14.85;;;6.50;;
48596;SDS011;34382;43.160;24.148;2022-08-21T05:11:17;12.93;;;6.32;;
48596;SDS011;34382;43.160;24.148;2022-08-21T05:12:49;13.70;;;6.88;;
48596;SDS011;34382;43.160;24.148;2022-08-21T05:14:21;14.00;;;7.03;;
48596;SDS011;34382;43.160;24.148;2022-08-21T05:15:54;16.25;;;6.72;;
48596;SDS011;34382;43.160;24.148;2022-08-21T05:17:27;14.48;;;7.00;;
48596;SDS011;34382;43.160;24.148;2022-08-21T05:18:59;15.93;;;6.63;;
48596;SDS011;34382;43.160;24.148;2022-08-21T05:20:32;12.77;;;6.45;;
48596;SDS011;34382;43.160;24.148;2022-08-21T05:22:06;13.25;;;6.28;;
48596;SDS011;34382;43.160;24.148;2022-08-21T05:23:38;11.70;;;6.13;;
48596;SDS011;34382;43.160;24.148;2022-08-21T05:25:10;9.63;;;5.90;;
48596;SDS011;34382;43.160;24.148;2022-08-21T05:26:43;13.20;;;6.03;;
48596;SDS011;34382;43.160;24.148;2022-08-21T05:28:17;13.38;;;6.55;;
48596;SDS011;34382;43.160;24.148;2022-08-21T05:29:50;11.20;;;6.60;;
48596;SDS011;34382;43.160;24.148;2022-08-21T05:31:22;14.70;;;7.03;;
48596;SDS011;34382;43.160;24.148;2022-08-21T05:32:55;13.93;;;6.53;;
48596;SDS011;34382;43.160;24.148;2022-08-21T05:34:30;13.65;;;6.40;;
48596;SDS011;34382;43.160;24.148;2022-08-21T05:36:02;15.95;;;6.80;;
48596;SDS011;34382;43.160;24.148;2022-08-21T05:37:35;13.23;;;6.72;;
48596;SDS011;34382;43.160;24.148;2022-08-21T05:39:07;13.65;;;6.90;;
48596;SDS011;34382;43.160;24.148;2022-08-21T05:40:40;11.73;;;7.10;;
48596;SDS011;34382;43.160;24.148;2022-08-21T05:42:12;12.10;;;6.57;;
48596;SDS011;34382;43.160;24.148;2022-08-21T05:43:44;16.52;;;7.32;;
48596;SDS011;34382;43.160;24.148;2022-08-21T05:45:17;12.18;;;7.35;;
48596;SDS011;34382;43.160;24.148;2022-08-21T05:47:10;16.02;;;7.45;;
48596;SDS011;34382;43.160;24.148;2022-08-21T05:48:43;14.98;;;7.28;;
48596;SDS011;34382;43.160;24.148;2022-08-21T05:50:16;16.67;;;7.37;;
48596;SDS011;34382;43.160;24.148;2022-08-21T05:51:48;14.10;;;7.30;;
48596;SDS011;34382;43.160;24.148;2022-08-21T05:53:21;15.77;;;7.63;;
48596;SDS011;34382;43.160;24.148;2022-08-21T05:54:54;14.55;;;8.63;;
48596;SDS011;34382;43.160;24.148;2022-08-21T05:56:26;14.88;;;8.27;;
48596;SDS011;34382;43.160;24.148;2022-08-21T05:57:59;16.65;;;7.95;;
48596;SDS011;34382;43.160;24.148;2022-08-21T05:59:31;12.50;;;8.20;;
48596;SDS011;34382;43.160;24.148;2022-08-21T06:01:03;15.43;;;8.07;;
48596;SDS011;34382;43.160;24.148;2022-08-21T06:02:36;15.93;;;8.10;;
48596;SDS011;34382;43.160;24.148;2022-08-21T06:04:08;14.50;;;8.43;;
48596;SDS011;34382;43.160;24.148;2022-08-21T06:05:42;16.05;;;8.50;;
48596;SDS011;34382;43.160;24.148;2022-08-21T06:07:14;15.15;;;7.63;;
48596;SDS011;34382;43.160;24.148;2022-08-21T06:08:47;15.40;;;8.63;;
48596;SDS011;34382;43.160;24.148;2022-08-21T06:10:19;17.35;;;9.20;;
48596;SDS011;34382;43.160;24.148;2022-08-21T06:11:51;15.27;;;8.68;;
48596;SDS011;34382;43.160;24.148;2022-08-21T06:13:24;15.68;;;9.25;;
48596;SDS011;34382;43.160;24.148;2022-08-21T06:14:56;16.08;;;9.32;;
48596;SDS011;34382;43.160;24.148;2022-08-21T06:16:28;13.50;;;8.60;;
48596;SDS011;34382;43.160;24.148;2022-08-21T06:18:01;17.10;;;8.80;;
48596;SDS011;34382;43.160;24.148;2022-08-21T06:19:33;14.83;;;8.93;;
48596;SDS011;34382;43.160;24.148;2022-08-21T06:21:06;18.00;;;8.97;;
48596;SDS011;34382;43.160;24.148;2022-08-21T06:22:39;17.85;;;10.00;;
48596;SDS011;34382;43.160;24.148;2022-08-21T06:24:11;16.75;;;9.63;;
48596;SDS011;34382;43.160;24.148;2022-08-21T06:25:43;16.77;;;9.02;;
48596;SDS011;34382;43.160;24.148;2022-08-21T06:27:15;17.27;;;9.40;;
48596;SDS011;34382;43.160;24.148;2022-08-21T06:28:54;17.67;;;8.82;;
48596;SDS011;34382;43.160;24.148;2022-08-21T06:30:27;13.63;;;8.52;;
48596;SDS011;34382;43.160;24.148;2022-08-21T06:31:59;17.67;;;9.57;;
48596;SDS011;34382;43.160;24.148;2022-08-21T06:33:31;15.07;;;8.60;;
48596;SDS011;34382;43.160;24.148;2022-08-21T06:35:04;21.23;;;9.18;;
48596;SDS011;34382;43.160;24.148;2022-08-21T06:36:37;14.65;;;8.85;;
48596;SDS011;34382;43.160;24.148;2022-08-21T06:38:09;15.93;;;9.15;;
48596;SDS011;34382;43.160;24.148;2022-08-21T06:39:42;15.73;;;9.02;;
48596;SDS011;34382;43.160;24.148;2022-08-21T06:41:15;12.68;;;8.68;;
48596;SDS011;34382;43.160;24.148;2022-08-21T06:42:54;15.98;;;8.57;;
48596;SDS011;34382;43.160;24.148;2022-08-21T06:44:26;14.68;;;9.25;;
48596;SDS011;34382;43.160;24.148;2022-08-21T06:45:58;13.85;;;8.93;;
48596;SDS011;34382;43.160;24.148;2022-08-21T06:47:30;13.77;;;9.27;;
48596;SDS011;34382;43.160;24.148;2022-08-21T06:49:03;16.63;;;9.02;;
48596;SDS011;34382;43.160;24.148;2022-08-21T06:50:36;14.57;;;8.73;;
48596;SDS011;34382;43.160;24.148;2022-08-21T06:52:09;15.67;;;9.37;;
48596;SDS011;34382;43.160;24.148;2022-08-21T06:53:43;19.45;;;9.55;;
48596;SDS011;34382;43.160;24.148;2022-08-21T06:55:15;18.38;;;10.60;;
48596;SDS011;34382;43.160;24.148;2022-08-21T06:56:53;17.45;;;10.85;;
48596;SDS011;34382;43.160;24.148;2022-08-21T06:58:25;17.77;;;8.93;;
48596;SDS011;34382;43.160;24.148;2022-08-21T06:59:59;17.70;;;10.00;;
48596;SDS011;34382;43.160;24.148;2022-08-21T07:01:31;14.23;;;9.40;;
48596;SDS011;34382;43.160;24.148;2022-08-21T07:03:06;14.15;;;8.48;;
48596;SDS011;34382;43.160;24.148;2022-08-21T07:04:38;14.82;;;8.60;;
48596;SDS011;34382;43.160;24.148;2022-08-21T07:06:11;12.68;;;8.32;;
48596;SDS011;34382;43.160;24.148;2022-08-21T07:07:43;14.98;;;9.20;;
48596;SDS011;34382;43.160;24.148;2022-08-21T07:09:17;16.63;;;8.90;;
48596;SDS011;34382;43.160;24.148;2022-08-21T07:10:55;16.77;;;9.50;;
48596;SDS011;34382;43.160;24.148;2022-08-21T07:12:29;14.40;;;8.65;;
48596;SDS011;34382;43.160;24.148;2022-08-21T07:14:02;14.27;;;8.40;;
48596;SDS011;34382;43.160;24.148;2022-08-21T07:15:36;16.40;;;9.45;;
48596;SDS011;34382;43.160;24.148;2022-08-21T07:17:08;13.27;;;9.47;;
48596;SDS011;34382;43.160;24.148;2022-08-21T07:18:41;16.85;;;10.25;;
48596;SDS011;34382;43.160;24.148;2022-08-21T07:20:13;18.52;;;9.43;;
48596;SDS011;34382;43.160;24.148;2022-08-21T07:21:46;17.70;;;9.55;;
48596;SDS011;34382;43.160;24.148;2022-08-21T07:23:26;16.00;;;9.18;;
48596;SDS011;34382;43.160;24.148;2022-08-21T07:25:01;16.60;;;8.77;;
48596;SDS011;34382;43.160;24.148;2022-08-21T07:26:33;17.58;;;10.30;;
48596;SDS011;34382;43.160;24.148;2022-08-21T07:28:06;15.00;;;8.93;;
48596;SDS011;34382;43.160;24.148;2022-08-21T07:29:39;14.82;;;8.98;;
48596;SDS011;34382;43.160;24.148;2022-08-21T07:31:12;17.87;;;9.60;;
48596;SDS011;34382;43.160;24.148;2022-08-21T07:32:46;17.63;;;10.05;;
48596;SDS011;34382;43.160;24.148;2022-08-21T07:34:21;15.88;;;10.10;;
48596;SDS011;34382;43.160;24.148;2022-08-21T07:35:53;17.92;;;9.40;;
48596;SDS011;34382;43.160;24.148;2022-08-21T07:37:26;14.48;;;9.60;;
48596;SDS011;34382;43.160;24.148;2022-08-21T07:38:59;13.07;;;8.82;;
48596;SDS011;34382;43.160;24.148;2022-08-21T07:40:32;16.08;;;8.90;;
48596;SDS011;34382;43.160;24.148;2022-08-21T07:42:05;20.58;;;10.77;;
48596;SDS011;34382;43.160;24.148;2022-08-21T07:43:38;17.60;;;9.10;;
48596;SDS011;34382;43.160;24.148;2022-08-21T07:45:17;15.02;;;9.15;;
48596;SDS011;34382;43.160;24.148;2022-08-21T07:46:52;19.02;;;11.25;;
48596;SDS011;34382;43.160;24.148;2022-08-21T07:48:25;15.50;;;9.10;;
48596;SDS011;34382;43.160;24.148;2022-08-21T07:49:57;20.65;;;11.15;;
48596;SDS011;34382;43.160;24.148;2022-08-21T07:51:29;16.20;;;9.27;;
48596;SDS011;34382;43.160;24.148;2022-08-21T07:53:02;16.75;;;9.73;;
48596;SDS011;34382;43.160;24.148;2022-08-21T07:54:35;18.52;;;9.45;;
48596;SDS011;34382;43.160;24.148;2022-08-21T07:56:08;12.70;;;8.07;;
48596;SDS011;34382;43.160;24.148;2022-08-21T07:57:42;21.90;;;8.77;;
48596;SDS011;34382;43.160;24.148;2022-08-21T07:59:16;16.13;;;9.30;;
48596;SDS011;34382;43.160;24.148;2022-08-21T08:00:48;15.60;;;9.43;;
48596;SDS011;34382;43.160;24.148;2022-08-21T08:02:25;19.70;;;11.65;;
48596;SDS011;34382;43.160;24.148;2022-08-21T08:03:59;13.57;;;8.15;;
48596;SDS011;34382;43.160;24.148;2022-08-21T08:05:31;14.90;;;8.60;;
48596;SDS011;34382;43.160;24.148;2022-08-21T08:07:04;14.45;;;8.70;;
48596;SDS011;34382;43.160;24.148;2022-08-21T08:08:36;16.35;;;9.35;;
48596;SDS011;34382;43.160;24.148;2022-08-21T08:10:10;14.40;;;9.63;;
48596;SDS011;34382;43.160;24.148;2022-08-21T08:11:42;14.45;;;8.80;;
48596;SDS011;34382;43.160;24.148;2022-08-21T08:13:18;16.58;;;9.52;;
48596;SDS011;34382;43.160;24.148;2022-08-21T08:14:51;18.48;;;9.85;;
48596;SDS011;34382;43.160;24.148;2022-08-21T08:16:24;17.80;;;10.10;;
48596;SDS011;34382;43.160;24.148;2022-08-21T08:17:57;21.17;;;12.00;;
48596;SDS011;34382;43.160;24.148;2022-08-21T08:19:29;20.05;;;12.18;;
48596;SDS011;34382;43.160;24.148;2022-08-21T08:21:02;19.08;;;12.93;;
48596;SDS011;34382;43.160;24.148;2022-08-21T08:22:37;17.17;;;11.40;;
48596;SDS011;34382;43.160;24.148;2022-08-21T08:24:10;13.90;;;9.27;;
48596;SDS011;34382;43.160;24.148;2022-08-21T08:25:50;16.35;;;10.55;;
48596;SDS011;34382;43.160;24.148;2022-08-21T08:27:22;19.92;;;11.52;;
48596;SDS011;34382;43.160;24.148;2022-08-21T08:28:55;17.65;;;10.73;;
48596;SDS011;34382;43.160;24.148;2022-08-21T08:30:28;17.48;;;10.43;;
48596;SDS011;34382;43.160;24.148;2022-08-21T08:32:03;16.77;;;11.88;;
48596;SDS011;34382;43.160;24.148;2022-08-21T08:33:37;19.77;;;11.02;;
48596;SDS011;34382;43.160;24.148;2022-08-21T08:35:10;19.15;;;10.55;;
48596;SDS011;34382;43.160;24.148;2022-08-21T08:36:43;18.35;;;10.23;;
48596;SDS011;34382;43.160;24.148;2022-08-21T08:38:17;14.88;;;9.55;;
48596;SDS011;34382;43.160;24.148;2022-08-21T08:39:54;16.50;;;9.82;;
48596;SDS011;34382;43.160;24.148;2022-08-21T08:41:27;14.38;;;8.68;;
48596;SDS011;34382;43.160;24.148;2022-08-21T08:43:02;21.83;;;13.48;;
48596;SDS011;34382;43.160;24.148;2022-08-21T08:44:34;19.20;;;11.13;;
48596;SDS011;34382;43.160;24.148;2022-08-21T08:46:10;15.82;;;8.50;;
48596;SDS011;34382;43.160;24.148;2022-08-21T08:47:47;13.25;;;8.88;;
48596;SDS011;34382;43.160;24.148;2022-08-21T08:53:35;20.10;;;10.95;;
48596;SDS011;34382;43.160;24.148;2022-08-21T08:55:17;16.65;;;9.60;;
48596;SDS011;34382;43.160;24.148;2022-08-21T08:57:00;16.00;;;7.95;;
48596;SDS011;34382;43.160;24.148;2022-08-21T08:58:37;13.18;;;7.93;;
48596;SDS011;34382;43.160;24.148;2022-08-21T09:00:13;14.05;;;7.70;;
48596;SDS011;34382;43.160;24.148;2022-08-21T09:01:48;16.30;;;8.50;;
48596;SDS011;34382;43.160;24.148;2022-08-21T09:03:22;17.20;;;8.45;;
48596;SDS011;34382;43.160;24.148;2022-08-21T09:04:56;14.73;;;8.48;;
48596;SDS011;34382;43.160;24.148;2022-08-21T09:06:43;15.67;;;9.30;;
48596;SDS011;34382;43.160;24.148;2022-08-21T09:08:36;18.80;;;9.80;;
48596;SDS011;34382;43.160;24.148;2022-08-21T09:10:28;15.73;;;8.50;;
48596;SDS011;34382;43.160;24.148;2022-08-21T09:23:46;16.35;;;8.77;;
48596;SDS011;34382;43.160;24.148;2022-08-21T09:27:31;15.40;;;8.80;;
48596;SDS011;34382;43.160;24.148;2022-08-21T09:29:04;12.98;;;8.80;;
48596;SDS011;34382;43.160;24.148;2022-08-21T09:30:40;15.80;;;8.68;;
48596;SDS011;34382;43.160;24.148;2022-08-21T09:32:17;15.95;;;7.78;;
48596;SDS011;34382;43.160;24.148;2022-08-21T09:34:01;15.98;;;8.73;;
48596;SDS011;34382;43.160;24.148;2022-08-21T09:36:10;15.75;;;7.93;;
48596;SDS011;34382;43.160;24.148;2022-08-21T09:38:04;13.23;;;8.38;;